sensor_id;sensor_type;location;lat;lon;timestamp;P1;durP1;ratioP1;P2;durP2;ratioP2
23716;SDS011;22094;52.130;5.598;2023-05-10T00:01:20;76.63;;;31.27;;
23716;SDS011;22094;52.130;5.598;2023-05-10T00:03:46;65.88;;;30.92;;
23716;SDS011;22094;52.130;5.598;2023-05-10T00:06:12;80.10;;;31.85;;
23716;SDS011;22094;52.130;5.598;2023-05-10T00:08:37;69.50;;;31.25;;
23716;SDS011;22094;52.130;5.598;2023-05-10T00:11:03;77.50;;;33.28;;
23716;SDS011;22094;52.130;5.598;2023-05-10T00:13:29;87.15;;;35.22;;
23716;SDS011;22094;52.130;5.598;2023-05-10T00:15:54;92.90;;;36.55;;
23716;SDS011;22094;52.130;5.598;2023-05-10T00:18:20;96.15;;;35.42;;
23716;SDS011;22094;52.130;5.598;2023-05-10T00:20:45;103.80;;;36.60;;
23716;SDS011;22094;52.130;5.598;2023-05-10T00:23:11;96.50;;;37.25;;
23716;SDS011;22094;52.130;5.598;2023-05-10T00:25:37;104.80;;;38.20;;
23716;SDS011;22094;52.130;5.598;2023-05-10T00:28:03;128.93;;;40.83;;
23716;SDS011;22094;52.130;5.598;2023-05-10T00:30:28;103.90;;;39.55;;
23716;SDS011;22094;52.130;5.598;2023-05-10T00:32:54;134.63;;;42.30;;
23716;SDS011;22094;52.130;5.598;2023-05-10T00:35:20;131.30;;;42.83;;
23716;SDS011;22094;52.130;5.598;2023-05-10T00:37:46;144.38;;;45.13;;
23716;SDS011;22094;52.130;5.598;2023-05-10T00:40:12;117.10;;;43.72;;
23716;SDS011;22094;52.130;5.598;2023-05-10T00:42:37;127.65;;;44.33;;
23716;SDS011;22094;52.130;5.598;2023-05-10T00:45:03;161.13;;;45.85;;
23716;SDS011;22094;52.130;5.598;2023-05-10T00:47:29;139.60;;;45.53;;
23716;SDS011;22094;52.130;5.598;2023-05-10T00:49:56;172.23;;;48.22;;
23716;SDS011;22094;52.130;5.598;2023-05-10T00:52:21;166.75;;;48.45;;
23716;SDS011;22094;52.130;5.598;2023-05-10T00:54:49;167.25;;;47.85;;
23716;SDS011;22094;52.130;5.598;2023-05-10T00:57:16;149.25;;;47.33;;
23716;SDS011;22094;52.130;5.598;2023-05-10T00:59:42;134.95;;;45.45;;
23716;SDS011;22094;52.130;5.598;2023-05-10T01:02:08;168.75;;;50.83;;
23716;SDS011;22094;52.130;5.598;2023-05-10T01:04:34;144.45;;;47.67;;
23716;SDS011;22094;52.130;5.598;2023-05-10T01:07:00;163.45;;;50.75;;
23716;SDS011;22094;52.130;5.598;2023-05-10T01:09:26;161.25;;;49.72;;
23716;SDS011;22094;52.130;5.598;2023-05-10T01:11:52;185.05;;;52.60;;
23716;SDS011;22094;52.130;5.598;2023-05-10T01:14:19;188.85;;;53.30;;
23716;SDS011;22094;52.130;5.598;2023-05-10T01:16:45;164.07;;;50.72;;
23716;SDS011;22094;52.130;5.598;2023-05-10T01:19:22;212.05;;;56.58;;
23716;SDS011;22094;52.130;5.598;2023-05-10T01:27:41;191.10;;;55.08;;
23716;SDS011;22094;52.130;5.598;2023-05-10T01:33:25;210.73;;;58.58;;
23716;SDS011;22094;52.130;5.598;2023-05-10T01:38:42;178.20;;;56.25;;
23716;SDS011;22094;52.130;5.598;2023-05-10T01:44:01;175.77;;;55.42;;
23716;SDS011;22094;52.130;5.598;2023-05-10T01:46:35;195.77;;;56.30;;
23716;SDS011;22094;52.130;5.598;2023-05-10T01:49:02;175.82;;;56.35;;
23716;SDS011;22094;52.130;5.598;2023-05-10T01:51:41;188.95;;;55.92;;
23716;SDS011;22094;52.130;5.598;2023-05-10T01:54:11;166.13;;;54.53;;
23716;SDS011;22094;52.130;5.598;2023-05-10T01:56:39;221.15;;;59.60;;
23716;SDS011;22094;52.130;5.598;2023-05-10T01:59:13;188.50;;;55.80;;
23716;SDS011;22094;52.130;5.598;2023-05-10T02:01:43;211.48;;;59.10;;
23716;SDS011;22094;52.130;5.598;2023-05-10T02:04:11;192.73;;;56.53;;
23716;SDS011;22094;52.130;5.598;2023-05-10T02:06:40;196.38;;;57.92;;
23716;SDS011;22094;52.130;5.598;2023-05-10T02:09:07;168.48;;;54.17;;
23716;SDS011;22094;52.130;5.598;2023-05-10T02:11:36;204.13;;;58.38;;
23716;SDS011;22094;52.130;5.598;2023-05-10T02:14:03;167.30;;;53.85;;
23716;SDS011;22094;52.130;5.598;2023-05-10T02:16:32;167.95;;;53.60;;
23716;SDS011;22094;52.130;5.598;2023-05-10T02:19:01;174.38;;;54.25;;
23716;SDS011;22094;52.130;5.598;2023-05-10T02:21:27;158.50;;;53.17;;
23716;SDS011;22094;52.130;5.598;2023-05-10T02:23:55;158.27;;;52.55;;
23716;SDS011;22094;52.130;5.598;2023-05-10T02:26:22;172.18;;;53.47;;
23716;SDS011;22094;52.130;5.598;2023-05-10T02:28:50;160.15;;;54.00;;
23716;SDS011;22094;52.130;5.598;2023-05-10T02:31:16;161.40;;;53.38;;
23716;SDS011;22094;52.130;5.598;2023-05-10T02:33:43;163.52;;;50.30;;
23716;SDS011;22094;52.130;5.598;2023-05-10T02:36:10;183.10;;;53.20;;
23716;SDS011;22094;52.130;5.598;2023-05-10T02:38:38;180.30;;;53.72;;
23716;SDS011;22094;52.130;5.598;2023-05-10T02:41:05;166.48;;;51.80;;
23716;SDS011;22094;52.130;5.598;2023-05-10T02:43:33;163.50;;;52.05;;
23716;SDS011;22094;52.130;5.598;2023-05-10T02:45:59;147.07;;;49.25;;
23716;SDS011;22094;52.130;5.598;2023-05-10T02:48:25;188.45;;;53.38;;
23716;SDS011;22094;52.130;5.598;2023-05-10T02:50:51;148.40;;;50.47;;
23716;SDS011;22094;52.130;5.598;2023-05-10T02:53:21;158.40;;;50.78;;
23716;SDS011;22094;52.130;5.598;2023-05-10T02:55:49;166.15;;;52.95;;
23716;SDS011;22094;52.130;5.598;2023-05-10T02:58:17;161.68;;;51.70;;
23716;SDS011;22094;52.130;5.598;2023-05-10T03:00:45;171.30;;;53.95;;
23716;SDS011;22094;52.130;5.598;2023-05-10T03:03:11;163.00;;;54.13;;
23716;SDS011;22094;52.130;5.598;2023-05-10T03:05:37;159.00;;;50.65;;
23716;SDS011;22094;52.130;5.598;2023-05-10T03:08:02;179.23;;;54.47;;
23716;SDS011;22094;52.130;5.598;2023-05-10T03:10:29;173.23;;;52.63;;
23716;SDS011;22094;52.130;5.598;2023-05-10T03:13:07;165.23;;;53.83;;
23716;SDS011;22094;52.130;5.598;2023-05-10T03:18:28;143.50;;;50.97;;
23716;SDS011;22094;52.130;5.598;2023-05-10T03:21:02;150.20;;;51.33;;
23716;SDS011;22094;52.130;5.598;2023-05-10T03:26:17;137.27;;;47.70;;
23716;SDS011;22094;52.130;5.598;2023-05-10T03:28:48;140.90;;;47.88;;
23716;SDS011;22094;52.130;5.598;2023-05-10T03:31:16;151.88;;;50.10;;
23716;SDS011;22094;52.130;5.598;2023-05-10T03:33:49;141.60;;;48.83;;
23716;SDS011;22094;52.130;5.598;2023-05-10T03:36:16;135.50;;;49.22;;
23716;SDS011;22094;52.130;5.598;2023-05-10T03:38:41;160.13;;;52.92;;
23716;SDS011;22094;52.130;5.598;2023-05-10T03:41:07;169.70;;;52.80;;
23716;SDS011;22094;52.130;5.598;2023-05-10T03:43:33;160.13;;;53.15;;
23716;SDS011;22094;52.130;5.598;2023-05-10T03:45:58;167.68;;;54.70;;
23716;SDS011;22094;52.130;5.598;2023-05-10T03:48:26;178.02;;;53.03;;
23716;SDS011;22094;52.130;5.598;2023-05-10T03:50:51;177.35;;;53.55;;
23716;SDS011;22094;52.130;5.598;2023-05-10T03:53:17;177.25;;;53.72;;
23716;SDS011;22094;52.130;5.598;2023-05-10T03:55:43;188.10;;;52.88;;
23716;SDS011;22094;52.130;5.598;2023-05-10T03:58:10;193.85;;;54.67;;
23716;SDS011;22094;52.130;5.598;2023-05-10T04:00:36;208.50;;;54.25;;
23716;SDS011;22094;52.130;5.598;2023-05-10T04:03:02;196.68;;;52.75;;
23716;SDS011;22094;52.130;5.598;2023-05-10T04:05:27;214.60;;;54.78;;
23716;SDS011;22094;52.130;5.598;2023-05-10T04:07:53;203.45;;;53.55;;
23716;SDS011;22094;52.130;5.598;2023-05-10T04:10:19;209.10;;;55.38;;
23716;SDS011;22094;52.130;5.598;2023-05-10T04:12:45;207.75;;;55.28;;
23716;SDS011;22094;52.130;5.598;2023-05-10T04:15:11;205.77;;;55.47;;
23716;SDS011;22094;52.130;5.598;2023-05-10T04:17:36;226.50;;;57.22;;
23716;SDS011;22094;52.130;5.598;2023-05-10T04:20:02;228.40;;;56.53;;
23716;SDS011;22094;52.130;5.598;2023-05-10T04:22:28;221.90;;;55.13;;
23716;SDS011;22094;52.130;5.598;2023-05-10T04:24:54;209.98;;;55.97;;
23716;SDS011;22094;52.130;5.598;2023-05-10T04:27:19;206.40;;;54.78;;
23716;SDS011;22094;52.130;5.598;2023-05-10T04:29:45;200.80;;;54.97;;
23716;SDS011;22094;52.130;5.598;2023-05-10T04:32:11;207.75;;;53.95;;
23716;SDS011;22094;52.130;5.598;2023-05-10T04:34:36;228.27;;;55.15;;
23716;SDS011;22094;52.130;5.598;2023-05-10T04:37:02;193.13;;;53.20;;
23716;SDS011;22094;52.130;5.598;2023-05-10T04:39:31;179.63;;;50.45;;
23716;SDS011;22094;52.130;5.598;2023-05-10T04:42:00;184.85;;;51.35;;
23716;SDS011;22094;52.130;5.598;2023-05-10T04:44:27;198.40;;;52.05;;
23716;SDS011;22094;52.130;5.598;2023-05-10T04:46:53;176.00;;;51.90;;
23716;SDS011;22094;52.130;5.598;2023-05-10T04:49:19;169.63;;;49.78;;
23716;SDS011;22094;52.130;5.598;2023-05-10T04:51:45;173.40;;;49.05;;
23716;SDS011;22094;52.130;5.598;2023-05-10T04:54:11;158.07;;;48.58;;
23716;SDS011;22094;52.130;5.598;2023-05-10T04:56:37;182.77;;;49.10;;
23716;SDS011;22094;52.130;5.598;2023-05-10T04:59:05;174.00;;;49.38;;
23716;SDS011;22094;52.130;5.598;2023-05-10T05:01:34;179.85;;;49.20;;
23716;SDS011;22094;52.130;5.598;2023-05-10T05:04:05;194.15;;;50.90;;
23716;SDS011;22094;52.130;5.598;2023-05-10T05:06:31;171.55;;;49.67;;
23716;SDS011;22094;52.130;5.598;2023-05-10T05:08:57;161.75;;;50.60;;
23716;SDS011;22094;52.130;5.598;2023-05-10T05:11:23;178.38;;;47.83;;
23716;SDS011;22094;52.130;5.598;2023-05-10T05:13:48;169.73;;;49.38;;
23716;SDS011;22094;52.130;5.598;2023-05-10T05:16:14;158.32;;;47.90;;
23716;SDS011;22094;52.130;5.598;2023-05-10T05:18:39;160.55;;;48.97;;
23716;SDS011;22094;52.130;5.598;2023-05-10T05:21:17;170.13;;;49.08;;
23716;SDS011;22094;52.130;5.598;2023-05-10T05:23:44;150.65;;;46.67;;
23716;SDS011;22094;52.130;5.598;2023-05-10T05:26:10;163.07;;;48.28;;
23716;SDS011;22094;52.130;5.598;2023-05-10T05:28:36;143.57;;;45.92;;
23716;SDS011;22094;52.130;5.598;2023-05-10T05:31:03;150.35;;;46.67;;
23716;SDS011;22094;52.130;5.598;2023-05-10T05:33:30;163.73;;;48.53;;
23716;SDS011;22094;52.130;5.598;2023-05-10T05:35:56;152.80;;;47.60;;
23716;SDS011;22094;52.130;5.598;2023-05-10T05:38:21;165.32;;;46.90;;
23716;SDS011;22094;52.130;5.598;2023-05-10T05:40:49;154.35;;;47.38;;
23716;SDS011;22094;52.130;5.598;2023-05-10T05:43:15;167.85;;;46.70;;
23716;SDS011;22094;52.130;5.598;2023-05-10T05:45:41;155.07;;;46.97;;
23716;SDS011;22094;52.130;5.598;2023-05-10T05:48:06;164.13;;;48.80;;
23716;SDS011;22094;52.130;5.598;2023-05-10T05:50:32;161.02;;;48.63;;
23716;SDS011;22094;52.130;5.598;2023-05-10T05:52:58;173.30;;;49.75;;
23716;SDS011;22094;52.130;5.598;2023-05-10T05:55:24;167.35;;;50.00;;
23716;SDS011;22094;52.130;5.598;2023-05-10T05:57:51;165.43;;;48.70;;
23716;SDS011;22094;52.130;5.598;2023-05-10T06:00:16;161.43;;;48.13;;
23716;SDS011;22094;52.130;5.598;2023-05-10T06:02:42;157.57;;;49.10;;
23716;SDS011;22094;52.130;5.598;2023-05-10T06:05:08;152.20;;;47.10;;
23716;SDS011;22094;52.130;5.598;2023-05-10T06:07:34;165.73;;;48.50;;
23716;SDS011;22094;52.130;5.598;2023-05-10T06:10:00;171.95;;;50.55;;
23716;SDS011;22094;52.130;5.598;2023-05-10T06:12:25;170.05;;;50.95;;
23716;SDS011;22094;52.130;5.598;2023-05-10T06:14:51;168.50;;;51.95;;
23716;SDS011;22094;52.130;5.598;2023-05-10T06:17:17;185.20;;;52.22;;
23716;SDS011;22094;52.130;5.598;2023-05-10T06:19:43;174.65;;;49.85;;
23716;SDS011;22094;52.130;5.598;2023-05-10T06:22:08;168.55;;;51.78;;
23716;SDS011;22094;52.130;5.598;2023-05-10T06:24:34;153.30;;;49.80;;
23716;SDS011;22094;52.130;5.598;2023-05-10T06:26:59;155.93;;;51.47;;
23716;SDS011;22094;52.130;5.598;2023-05-10T06:29:25;158.65;;;53.20;;
23716;SDS011;22094;52.130;5.598;2023-05-10T06:31:51;156.70;;;51.92;;
23716;SDS011;22094;52.130;5.598;2023-05-10T06:34:16;150.25;;;53.42;;
23716;SDS011;22094;52.130;5.598;2023-05-10T06:36:42;155.98;;;53.50;;
23716;SDS011;22094;52.130;5.598;2023-05-10T06:39:08;153.02;;;54.15;;
23716;SDS011;22094;52.130;5.598;2023-05-10T06:41:33;144.70;;;51.67;;
23716;SDS011;22094;52.130;5.598;2023-05-10T06:43:59;143.27;;;51.67;;
23716;SDS011;22094;52.130;5.598;2023-05-10T06:46:25;139.95;;;52.03;;
23716;SDS011;22094;52.130;5.598;2023-05-10T06:48:50;146.98;;;53.95;;
23716;SDS011;22094;52.130;5.598;2023-05-10T06:51:16;127.50;;;49.55;;
23716;SDS011;22094;52.130;5.598;2023-05-10T06:53:42;112.40;;;45.10;;
23716;SDS011;22094;52.130;5.598;2023-05-10T06:56:08;126.97;;;50.03;;
23716;SDS011;22094;52.130;5.598;2023-05-10T06:58:34;118.25;;;46.80;;
23716;SDS011;22094;52.130;5.598;2023-05-10T07:01:03;107.45;;;44.88;;
23716;SDS011;22094;52.130;5.598;2023-05-10T07:03:29;103.85;;;44.78;;
23716;SDS011;22094;52.130;5.598;2023-05-10T07:05:59;96.80;;;42.25;;
23716;SDS011;22094;52.130;5.598;2023-05-10T07:08:31;93.07;;;40.88;;
23716;SDS011;22094;52.130;5.598;2023-05-10T07:11:01;83.38;;;36.70;;
23716;SDS011;22094;52.130;5.598;2023-05-10T07:13:32;81.20;;;34.88;;
23716;SDS011;22094;52.130;5.598;2023-05-10T07:15:58;70.50;;;35.20;;
23716;SDS011;22094;52.130;5.598;2023-05-10T07:18:25;68.88;;;32.88;;
23716;SDS011;22094;52.130;5.598;2023-05-10T07:20:51;61.78;;;31.77;;
23716;SDS011;22094;52.130;5.598;2023-05-10T07:23:17;57.17;;;29.58;;
23716;SDS011;22094;52.130;5.598;2023-05-10T07:25:47;51.72;;;28.48;;
23716;SDS011;22094;52.130;5.598;2023-05-10T07:28:13;48.70;;;27.05;;
23716;SDS011;22094;52.130;5.598;2023-05-10T07:30:39;44.65;;;25.30;;
23716;SDS011;22094;52.130;5.598;2023-05-10T07:33:05;40.55;;;23.88;;
23716;SDS011;22094;52.130;5.598;2023-05-10T07:35:32;39.65;;;23.45;;
23716;SDS011;22094;52.130;5.598;2023-05-10T07:37:58;40.13;;;23.05;;
23716;SDS011;22094;52.130;5.598;2023-05-10T07:40:24;36.17;;;21.63;;
23716;SDS011;22094;52.130;5.598;2023-05-10T07:42:49;34.90;;;21.73;;
23716;SDS011;22094;52.130;5.598;2023-05-10T07:45:15;33.67;;;20.27;;
23716;SDS011;22094;52.130;5.598;2023-05-10T07:47:41;29.02;;;18.55;;
23716;SDS011;22094;52.130;5.598;2023-05-10T07:50:07;25.98;;;17.63;;
23716;SDS011;22094;52.130;5.598;2023-05-10T07:52:33;28.42;;;17.00;;
23716;SDS011;22094;52.130;5.598;2023-05-10T07:54:59;25.83;;;16.88;;
23716;SDS011;22094;52.130;5.598;2023-05-10T07:57:25;29.73;;;17.67;;
23716;SDS011;22094;52.130;5.598;2023-05-10T07:59:51;25.25;;;17.00;;
23716;SDS011;22094;52.130;5.598;2023-05-10T08:02:17;26.95;;;17.27;;
23716;SDS011;22094;52.130;5.598;2023-05-10T08:04:44;26.23;;;15.90;;
23716;SDS011;22094;52.130;5.598;2023-05-10T08:07:10;28.65;;;17.10;;
23716;SDS011;22094;52.130;5.598;2023-05-10T08:09:36;22.63;;;15.75;;
23716;SDS011;22094;52.130;5.598;2023-05-10T08:12:02;27.60;;;16.50;;
23716;SDS011;22094;52.130;5.598;2023-05-10T08:14:28;27.13;;;17.10;;
23716;SDS011;22094;52.130;5.598;2023-05-10T08:16:54;25.35;;;16.58;;
23716;SDS011;22094;52.130;5.598;2023-05-10T08:19:21;26.50;;;16.58;;
23716;SDS011;22094;52.130;5.598;2023-05-10T08:21:47;28.08;;;17.77;;
23716;SDS011;22094;52.130;5.598;2023-05-10T08:24:14;26.65;;;17.77;;
23716;SDS011;22094;52.130;5.598;2023-05-10T08:26:40;24.98;;;16.65;;
23716;SDS011;22094;52.130;5.598;2023-05-10T08:29:05;25.38;;;16.25;;
23716;SDS011;22094;52.130;5.598;2023-05-10T08:31:31;23.73;;;16.13;;
23716;SDS011;22094;52.130;5.598;2023-05-10T08:33:58;20.75;;;14.80;;
23716;SDS011;22094;52.130;5.598;2023-05-10T08:36:24;20.58;;;14.40;;
23716;SDS011;22094;52.130;5.598;2023-05-10T08:38:50;20.63;;;14.63;;
23716;SDS011;22094;52.130;5.598;2023-05-10T08:41:17;17.45;;;11.60;;
23716;SDS011;22094;52.130;5.598;2023-05-10T08:43:49;19.13;;;12.57;;
23716;SDS011;22094;52.130;5.598;2023-05-10T08:46:16;19.48;;;13.85;;
23716;SDS011;22094;52.130;5.598;2023-05-10T08:48:47;18.25;;;13.93;;
23716;SDS011;22094;52.130;5.598;2023-05-10T08:51:14;21.52;;;13.68;;
23716;SDS011;22094;52.130;5.598;2023-05-10T08:53:45;19.13;;;12.95;;
23716;SDS011;22094;52.130;5.598;2023-05-10T08:56:11;19.95;;;13.80;;
23716;SDS011;22094;52.130;5.598;2023-05-10T08:58:37;18.67;;;14.07;;
23716;SDS011;22094;52.130;5.598;2023-05-10T09:01:03;20.77;;;14.75;;
23716;SDS011;22094;52.130;5.598;2023-05-10T09:03:30;19.00;;;14.50;;
23716;SDS011;22094;52.130;5.598;2023-05-10T09:05:57;22.33;;;15.57;;
23716;SDS011;22094;52.130;5.598;2023-05-10T09:08:23;22.10;;;15.70;;
23716;SDS011;22094;52.130;5.598;2023-05-10T09:10:50;22.70;;;16.30;;
23716;SDS011;22094;52.130;5.598;2023-05-10T09:13:17;23.25;;;16.58;;
23716;SDS011;22094;52.130;5.598;2023-05-10T09:15:44;21.40;;;16.02;;
23716;SDS011;22094;52.130;5.598;2023-05-10T09:18:10;19.38;;;14.50;;
23716;SDS011;22094;52.130;5.598;2023-05-10T09:20:37;21.85;;;15.18;;
23716;SDS011;22094;52.130;5.598;2023-05-10T09:23:03;22.00;;;14.65;;
23716;SDS011;22094;52.130;5.598;2023-05-10T09:25:28;21.02;;;14.75;;
23716;SDS011;22094;52.130;5.598;2023-05-10T09:27:54;19.60;;;14.50;;
23716;SDS011;22094;52.130;5.598;2023-05-10T09:30:29;19.33;;;14.50;;
23716;SDS011;22094;52.130;5.598;2023-05-10T09:32:56;17.85;;;13.98;;
23716;SDS011;22094;52.130;5.598;2023-05-10T09:35:24;22.02;;;14.88;;
23716;SDS011;22094;52.130;5.598;2023-05-10T09:37:51;20.58;;;14.13;;
23716;SDS011;22094;52.130;5.598;2023-05-10T09:40:19;20.77;;;14.77;;
23716;SDS011;22094;52.130;5.598;2023-05-10T09:45:24;17.75;;;14.48;;
23716;SDS011;22094;52.130;5.598;2023-05-10T09:47:51;18.92;;;14.57;;
23716;SDS011;22094;52.130;5.598;2023-05-10T09:50:17;15.73;;;12.98;;
23716;SDS011;22094;52.130;5.598;2023-05-10T09:55:16;16.50;;;12.95;;
23716;SDS011;22094;52.130;5.598;2023-05-10T09:57:42;14.38;;;11.50;;
23716;SDS011;22094;52.130;5.598;2023-05-10T10:00:08;12.48;;;10.45;;
23716;SDS011;22094;52.130;5.598;2023-05-10T10:02:37;14.38;;;10.68;;
23716;SDS011;22094;52.130;5.598;2023-05-10T10:05:03;12.85;;;11.48;;
23716;SDS011;22094;52.130;5.598;2023-05-10T10:07:31;13.15;;;10.55;;
23716;SDS011;22094;52.130;5.598;2023-05-10T10:09:57;9.95;;;8.70;;
23716;SDS011;22094;52.130;5.598;2023-05-10T10:12:23;11.05;;;9.15;;
23716;SDS011;22094;52.130;5.598;2023-05-10T10:14:49;11.00;;;9.27;;
23716;SDS011;22094;52.130;5.598;2023-05-10T10:17:16;11.35;;;9.30;;
23716;SDS011;22094;52.130;5.598;2023-05-10T10:19:42;6.97;;;6.25;;
23716;SDS011;22094;52.130;5.598;2023-05-10T10:22:08;6.95;;;5.68;;
23716;SDS011;22094;52.130;5.598;2023-05-10T10:24:36;7.18;;;5.32;;
23716;SDS011;22094;52.130;5.598;2023-05-10T10:27:08;6.22;;;5.63;;
23716;SDS011;22094;52.130;5.598;2023-05-10T10:29:49;7.82;;;6.32;;
23716;SDS011;22094;52.130;5.598;2023-05-10T10:32:27;6.72;;;5.95;;
23716;SDS011;22094;52.130;5.598;2023-05-10T10:35:10;9.45;;;6.35;;
23716;SDS011;22094;52.130;5.598;2023-05-10T10:37:43;8.38;;;6.70;;
23716;SDS011;22094;52.130;5.598;2023-05-10T10:40:23;6.53;;;5.88;;
23716;SDS011;22094;52.130;5.598;2023-05-10T10:42:53;6.07;;;5.47;;
23716;SDS011;22094;52.130;5.598;2023-05-10T10:45:19;6.10;;;5.35;;
23716;SDS011;22094;52.130;5.598;2023-05-10T10:47:45;7.13;;;6.18;;
23716;SDS011;22094;52.130;5.598;2023-05-10T10:50:12;7.55;;;6.70;;
23716;SDS011;22094;52.130;5.598;2023-05-10T10:52:38;7.70;;;5.88;;
23716;SDS011;22094;52.130;5.598;2023-05-10T10:55:12;6.97;;;5.85;;
23716;SDS011;22094;52.130;5.598;2023-05-10T10:57:50;6.63;;;5.78;;
23716;SDS011;22094;52.130;5.598;2023-05-10T11:02:47;7.15;;;5.20;;
23716;SDS011;22094;52.130;5.598;2023-05-10T11:05:24;7.13;;;5.68;;
23716;SDS011;22094;52.130;5.598;2023-05-10T11:10:37;7.28;;;6.50;;
23716;SDS011;22094;52.130;5.598;2023-05-10T11:13:04;8.85;;;6.30;;
23716;SDS011;22094;52.130;5.598;2023-05-10T11:15:34;8.88;;;7.00;;
23716;SDS011;22094;52.130;5.598;2023-05-10T11:18:24;9.68;;;7.30;;
23716;SDS011;22094;52.130;5.598;2023-05-10T11:23:21;8.75;;;7.85;;
23716;SDS011;22094;52.130;5.598;2023-05-10T11:25:47;8.43;;;7.53;;
23716;SDS011;22094;52.130;5.598;2023-05-10T11:28:13;11.52;;;8.13;;
23716;SDS011;22094;52.130;5.598;2023-05-10T11:30:42;9.30;;;8.40;;
23716;SDS011;22094;52.130;5.598;2023-05-10T11:33:09;9.82;;;7.70;;
23716;SDS011;22094;52.130;5.598;2023-05-10T11:35:38;8.45;;;7.55;;
23716;SDS011;22094;52.130;5.598;2023-05-10T11:38:11;8.07;;;6.88;;
23716;SDS011;22094;52.130;5.598;2023-05-10T11:40:37;7.90;;;6.97;;
23716;SDS011;22094;52.130;5.598;2023-05-10T11:43:04;9.23;;;7.43;;
23716;SDS011;22094;52.130;5.598;2023-05-10T11:45:33;8.48;;;7.63;;
23716;SDS011;22094;52.130;5.598;2023-05-10T11:47:59;7.93;;;6.90;;
23716;SDS011;22094;52.130;5.598;2023-05-10T11:50:25;8.43;;;7.32;;
23716;SDS011;22094;52.130;5.598;2023-05-10T11:52:52;8.90;;;7.22;;
23716;SDS011;22094;52.130;5.598;2023-05-10T11:55:19;8.02;;;6.72;;
23716;SDS011;22094;52.130;5.598;2023-05-10T11:57:45;8.18;;;6.55;;
23716;SDS011;22094;52.130;5.598;2023-05-10T12:00:11;6.72;;;6.03;;
23716;SDS011;22094;52.130;5.598;2023-05-10T12:02:38;7.03;;;6.30;;
23716;SDS011;22094;52.130;5.598;2023-05-10T12:05:04;7.25;;;6.55;;
23716;SDS011;22094;52.130;5.598;2023-05-10T12:07:31;9.80;;;7.45;;
23716;SDS011;22094;52.130;5.598;2023-05-10T12:10:07;8.93;;;6.90;;
23716;SDS011;22094;52.130;5.598;2023-05-10T12:12:46;8.27;;;6.65;;
23716;SDS011;22094;52.130;5.598;2023-05-10T12:15:18;9.13;;;7.22;;
23716;SDS011;22094;52.130;5.598;2023-05-10T12:17:48;9.40;;;6.63;;
23716;SDS011;22094;52.130;5.598;2023-05-10T12:22:55;9.68;;;6.70;;
23716;SDS011;22094;52.130;5.598;2023-05-10T12:25:22;7.20;;;6.22;;
23716;SDS011;22094;52.130;5.598;2023-05-10T12:27:52;6.90;;;5.50;;
23716;SDS011;22094;52.130;5.598;2023-05-10T12:30:26;7.70;;;6.60;;
23716;SDS011;22094;52.130;5.598;2023-05-10T12:32:53;6.88;;;6.18;;
23716;SDS011;22094;52.130;5.598;2023-05-10T12:35:24;8.65;;;6.25;;
23716;SDS011;22094;52.130;5.598;2023-05-10T12:37:52;8.27;;;6.35;;
23716;SDS011;22094;52.130;5.598;2023-05-10T12:40:18;6.50;;;5.70;;
23716;SDS011;22094;52.130;5.598;2023-05-10T12:42:44;7.93;;;5.50;;
23716;SDS011;22094;52.130;5.598;2023-05-10T12:45:10;8.02;;;6.03;;
23716;SDS011;22094;52.130;5.598;2023-05-10T12:47:36;6.78;;;5.72;;
23716;SDS011;22094;52.130;5.598;2023-05-10T12:50:03;7.95;;;5.55;;
23716;SDS011;22094;52.130;5.598;2023-05-10T12:52:29;6.80;;;5.50;;
23716;SDS011;22094;52.130;5.598;2023-05-10T12:54:56;8.25;;;6.40;;
23716;SDS011;22094;52.130;5.598;2023-05-10T12:57:23;6.18;;;5.15;;
23716;SDS011;22094;52.130;5.598;2023-05-10T12:59:49;6.47;;;4.97;;
23716;SDS011;22094;52.130;5.598;2023-05-10T13:02:15;6.50;;;5.18;;
23716;SDS011;22094;52.130;5.598;2023-05-10T13:04:43;5.38;;;4.70;;
23716;SDS011;22094;52.130;5.598;2023-05-10T13:07:09;6.55;;;4.20;;
23716;SDS011;22094;52.130;5.598;2023-05-10T13:09:35;5.05;;;4.00;;
23716;SDS011;22094;52.130;5.598;2023-05-10T13:12:01;4.32;;;3.50;;
23716;SDS011;22094;52.130;5.598;2023-05-10T13:14:27;4.53;;;3.97;;
23716;SDS011;22094;52.130;5.598;2023-05-10T13:16:53;6.20;;;4.00;;
23716;SDS011;22094;52.130;5.598;2023-05-10T13:19:19;4.93;;;3.75;;
23716;SDS011;22094;52.130;5.598;2023-05-10T13:21:45;5.00;;;3.50;;
23716;SDS011;22094;52.130;5.598;2023-05-10T13:24:11;4.15;;;3.22;;
23716;SDS011;22094;52.130;5.598;2023-05-10T13:26:38;3.92;;;3.03;;
23716;SDS011;22094;52.130;5.598;2023-05-10T13:29:07;4.10;;;3.03;;
23716;SDS011;22094;52.130;5.598;2023-05-10T13:31:33;3.90;;;3.20;;
23716;SDS011;22094;52.130;5.598;2023-05-10T13:34:00;3.50;;;3.20;;
23716;SDS011;22094;52.130;5.598;2023-05-10T13:36:25;3.95;;;3.10;;
23716;SDS011;22094;52.130;5.598;2023-05-10T13:38:51;4.55;;;3.58;;
23716;SDS011;22094;52.130;5.598;2023-05-10T13:41:17;4.05;;;3.60;;
23716;SDS011;22094;52.130;5.598;2023-05-10T13:43:43;5.18;;;3.45;;
23716;SDS011;22094;52.130;5.598;2023-05-10T13:46:09;5.18;;;3.72;;
23716;SDS011;22094;52.130;5.598;2023-05-10T13:48:35;5.32;;;4.82;;
23716;SDS011;22094;52.130;5.598;2023-05-10T13:51:02;6.10;;;5.47;;
23716;SDS011;22094;52.130;5.598;2023-05-10T13:53:28;6.57;;;5.90;;
23716;SDS011;22094;52.130;5.598;2023-05-10T13:55:53;7.57;;;5.90;;
23716;SDS011;22094;52.130;5.598;2023-05-10T13:58:19;9.70;;;7.05;;
23716;SDS011;22094;52.130;5.598;2023-05-10T14:00:45;7.90;;;6.75;;
23716;SDS011;22094;52.130;5.598;2023-05-10T14:03:11;10.43;;;6.93;;
23716;SDS011;22094;52.130;5.598;2023-05-10T14:05:37;6.90;;;6.07;;
23716;SDS011;22094;52.130;5.598;2023-05-10T14:08:03;7.78;;;6.25;;
23716;SDS011;22094;52.130;5.598;2023-05-10T14:10:29;6.88;;;5.43;;
23716;SDS011;22094;52.130;5.598;2023-05-10T14:12:55;9.07;;;5.75;;
23716;SDS011;22094;52.130;5.598;2023-05-10T14:15:20;6.57;;;5.35;;
23716;SDS011;22094;52.130;5.598;2023-05-10T14:17:46;10.07;;;5.68;;
23716;SDS011;22094;52.130;5.598;2023-05-10T14:20:12;6.82;;;5.57;;
23716;SDS011;22094;52.130;5.598;2023-05-10T14:22:38;8.68;;;5.22;;
23716;SDS011;22094;52.130;5.598;2023-05-10T14:25:04;10.32;;;6.38;;
23716;SDS011;22094;52.130;5.598;2023-05-10T14:27:29;12.05;;;6.57;;
23716;SDS011;22094;52.130;5.598;2023-05-10T14:29:55;10.63;;;6.65;;
23716;SDS011;22094;52.130;5.598;2023-05-10T14:32:20;11.20;;;6.35;;
23716;SDS011;22094;52.130;5.598;2023-05-10T14:34:46;13.52;;;7.38;;
23716;SDS011;22094;52.130;5.598;2023-05-10T14:37:13;13.65;;;7.93;;
23716;SDS011;22094;52.130;5.598;2023-05-10T14:39:39;11.65;;;7.55;;
23716;SDS011;22094;52.130;5.598;2023-05-10T14:42:05;11.07;;;8.32;;
23716;SDS011;22094;52.130;5.598;2023-05-10T14:44:30;15.82;;;8.45;;
23716;SDS011;22094;52.130;5.598;2023-05-10T14:46:56;12.23;;;8.02;;
23716;SDS011;22094;52.130;5.598;2023-05-10T14:49:22;13.45;;;8.35;;
23716;SDS011;22094;52.130;5.598;2023-05-10T14:51:49;14.88;;;9.15;;
23716;SDS011;22094;52.130;5.598;2023-05-10T14:54:15;13.57;;;9.43;;
23716;SDS011;22094;52.130;5.598;2023-05-10T14:56:40;15.25;;;10.02;;
23716;SDS011;22094;52.130;5.598;2023-05-10T14:59:06;18.27;;;10.25;;